North Hampton, Ohio
Current Conditions -  °F | °C
As of 6:56 AM on Saturday 25 Oct 2014 (Local Time) from KSGH Reporting Station
Clear Clear  
Wind Chill: 45°   Ceiling: Unl
Heat Index: 48°   Visibility: 7mi
Dew Point: 45°   Wind: 7mph
Humidity: 90%   Direction: 200°SSW
Pressure: 29.99"   Gusts: NA
Location:  39.99°N, 83.94°W
Report Text: KSGH 251056Z AUTO 20006KT 7SM CLR 09/07 A2999 RMK AO2 T00880072 SLP155
Loading
Personal Weather Stations






























Interactive Weather Map
Tropical Storm Tracking
New forecast layout! Learn more

10-Day Weather Forecast

Advertisements
Track Severe Weather on mobile